sensor_id;sensor_type;location;lat;lon;timestamp;P1;durP1;ratioP1;P2;durP2;ratioP2
15952;SDS011;8075;47.766;8.846;2024-01-06T00:01:24;21.48;;;17.17;;
15952;SDS011;8075;47.766;8.846;2024-01-06T00:03:50;23.50;;;17.77;;
15952;SDS011;8075;47.766;8.846;2024-01-06T00:06:16;22.08;;;17.00;;
15952;SDS011;8075;47.766;8.846;2024-01-06T00:08:42;18.35;;;16.13;;
15952;SDS011;8075;47.766;8.846;2024-01-06T00:11:09;18.55;;;15.20;;
15952;SDS011;8075;47.766;8.846;2024-01-06T00:13:35;19.60;;;15.50;;
15952;SDS011;8075;47.766;8.846;2024-01-06T00:16:01;17.77;;;15.63;;
15952;SDS011;8075;47.766;8.846;2024-01-06T00:18:27;17.50;;;14.38;;
15952;SDS011;8075;47.766;8.846;2024-01-06T00:20:53;18.77;;;15.77;;
15952;SDS011;8075;47.766;8.846;2024-01-06T00:23:19;21.20;;;16.75;;
15952;SDS011;8075;47.766;8.846;2024-01-06T00:25:45;17.67;;;15.63;;
15952;SDS011;8075;47.766;8.846;2024-01-06T00:28:11;17.65;;;15.45;;
15952;SDS011;8075;47.766;8.846;2024-01-06T00:30:37;16.02;;;14.35;;
15952;SDS011;8075;47.766;8.846;2024-01-06T00:33:03;16.52;;;14.52;;
15952;SDS011;8075;47.766;8.846;2024-01-06T00:35:29;16.38;;;14.68;;
15952;SDS011;8075;47.766;8.846;2024-01-06T00:37:55;18.23;;;15.10;;
15952;SDS011;8075;47.766;8.846;2024-01-06T00:40:21;15.43;;;13.80;;
15952;SDS011;8075;47.766;8.846;2024-01-06T00:42:47;15.07;;;13.48;;
15952;SDS011;8075;47.766;8.846;2024-01-06T00:45:13;14.52;;;13.07;;
15952;SDS011;8075;47.766;8.846;2024-01-06T00:47:39;14.73;;;13.27;;
15952;SDS011;8075;47.766;8.846;2024-01-06T00:50:05;14.88;;;13.35;;
15952;SDS011;8075;47.766;8.846;2024-01-06T00:52:31;15.45;;;13.85;;
15952;SDS011;8075;47.766;8.846;2024-01-06T00:54:57;17.55;;;14.88;;
15952;SDS011;8075;47.766;8.846;2024-01-06T00:57:23;18.23;;;15.70;;
15952;SDS011;8075;47.766;8.846;2024-01-06T00:59:49;17.40;;;14.55;;
15952;SDS011;8075;47.766;8.846;2024-01-06T01:02:15;16.08;;;14.38;;
15952;SDS011;8075;47.766;8.846;2024-01-06T01:04:42;16.17;;;14.55;;
15952;SDS011;8075;47.766;8.846;2024-01-06T01:07:08;10.70;;;9.70;;
15952;SDS011;8075;47.766;8.846;2024-01-06T01:09:34;10.55;;;9.65;;
15952;SDS011;8075;47.766;8.846;2024-01-06T01:12:00;10.95;;;10.05;;
15952;SDS011;8075;47.766;8.846;2024-01-06T01:14:26;11.97;;;10.87;;
15952;SDS011;8075;47.766;8.846;2024-01-06T01:16:52;12.63;;;10.50;;
15952;SDS011;8075;47.766;8.846;2024-01-06T01:19:18;11.45;;;10.45;;
15952;SDS011;8075;47.766;8.846;2024-01-06T01:21:44;8.17;;;7.47;;
15952;SDS011;8075;47.766;8.846;2024-01-06T01:24:10;7.28;;;6.68;;
15952;SDS011;8075;47.766;8.846;2024-01-06T01:26:36;6.28;;;5.78;;
15952;SDS011;8075;47.766;8.846;2024-01-06T01:29:02;5.87;;;5.37;;
15952;SDS011;8075;47.766;8.846;2024-01-06T01:31:28;6.00;;;5.50;;
15952;SDS011;8075;47.766;8.846;2024-01-06T01:33:54;5.82;;;5.32;;
15952;SDS011;8075;47.766;8.846;2024-01-06T01:36:20;5.47;;;5.07;;
15952;SDS011;8075;47.766;8.846;2024-01-06T01:38:46;5.75;;;5.25;;
15952;SDS011;8075;47.766;8.846;2024-01-06T01:41:12;5.33;;;4.93;;
15952;SDS011;8075;47.766;8.846;2024-01-06T01:43:38;5.40;;;4.90;;
15952;SDS011;8075;47.766;8.846;2024-01-06T01:46:04;5.82;;;5.32;;
15952;SDS011;8075;47.766;8.846;2024-01-06T01:48:30;6.40;;;5.30;;
15952;SDS011;8075;47.766;8.846;2024-01-06T01:50:59;4.65;;;3.72;;
15952;SDS011;8075;47.766;8.846;2024-01-06T01:53:25;3.67;;;3.33;;
15952;SDS011;8075;47.766;8.846;2024-01-06T01:55:52;2.90;;;2.70;;
15952;SDS011;8075;47.766;8.846;2024-01-06T01:58:18;3.00;;;2.70;;
15952;SDS011;8075;47.766;8.846;2024-01-06T02:00:44;2.13;;;1.92;;
15952;SDS011;8075;47.766;8.846;2024-01-06T02:03:10;3.03;;;2.33;;
15952;SDS011;8075;47.766;8.846;2024-01-06T02:05:37;2.10;;;1.90;;
15952;SDS011;8075;47.766;8.846;2024-01-06T02:08:03;2.70;;;2.00;;
15952;SDS011;8075;47.766;8.846;2024-01-06T02:10:29;2.50;;;1.73;;
15952;SDS011;8075;47.766;8.846;2024-01-06T02:12:55;2.83;;;1.90;;
15952;SDS011;8075;47.766;8.846;2024-01-06T02:15:21;2.45;;;1.58;;
15952;SDS011;8075;47.766;8.846;2024-01-06T02:17:47;1.98;;;1.50;;
15952;SDS011;8075;47.766;8.846;2024-01-06T02:20:13;1.30;;;1.10;;
15952;SDS011;8075;47.766;8.846;2024-01-06T02:22:40;1.80;;;1.20;;
15952;SDS011;8075;47.766;8.846;2024-01-06T02:25:06;1.75;;;1.13;;
15952;SDS011;8075;47.766;8.846;2024-01-06T02:27:37;1.13;;;0.88;;
15952;SDS011;8075;47.766;8.846;2024-01-06T02:30:04;1.45;;;0.90;;
15952;SDS011;8075;47.766;8.846;2024-01-06T02:32:30;2.45;;;1.30;;
15952;SDS011;8075;47.766;8.846;2024-01-06T02:34:56;1.55;;;1.05;;
15952;SDS011;8075;47.766;8.846;2024-01-06T02:37:22;1.60;;;1.13;;
15952;SDS011;8075;47.766;8.846;2024-01-06T02:39:48;1.20;;;1.00;;
15952;SDS011;8075;47.766;8.846;2024-01-06T02:42:14;1.25;;;0.90;;
15952;SDS011;8075;47.766;8.846;2024-01-06T02:44:40;1.13;;;0.82;;
15952;SDS011;8075;47.766;8.846;2024-01-06T02:47:06;1.80;;;0.90;;
15952;SDS011;8075;47.766;8.846;2024-01-06T02:49:32;1.35;;;1.00;;
15952;SDS011;8075;47.766;8.846;2024-01-06T02:51:58;2.50;;;1.20;;
15952;SDS011;8075;47.766;8.846;2024-01-06T02:54:24;2.40;;;1.13;;
15952;SDS011;8075;47.766;8.846;2024-01-06T02:56:50;2.15;;;1.10;;
15952;SDS011;8075;47.766;8.846;2024-01-06T02:59:16;2.72;;;1.00;;
15952;SDS011;8075;47.766;8.846;2024-01-06T03:01:42;1.10;;;1.00;;
15952;SDS011;8075;47.766;8.846;2024-01-06T03:04:08;1.25;;;1.00;;
15952;SDS011;8075;47.766;8.846;2024-01-06T03:06:35;2.10;;;1.10;;
15952;SDS011;8075;47.766;8.846;2024-01-06T03:09:01;1.42;;;1.10;;
15952;SDS011;8075;47.766;8.846;2024-01-06T03:11:27;1.67;;;1.00;;
15952;SDS011;8075;47.766;8.846;2024-01-06T03:13:53;2.90;;;1.20;;
15952;SDS011;8075;47.766;8.846;2024-01-06T03:16:19;1.30;;;0.85;;
15952;SDS011;8075;47.766;8.846;2024-01-06T03:18:45;1.70;;;1.02;;
15952;SDS011;8075;47.766;8.846;2024-01-06T03:21:18;1.88;;;1.00;;
15952;SDS011;8075;47.766;8.846;2024-01-06T03:23:44;1.27;;;0.90;;
15952;SDS011;8075;47.766;8.846;2024-01-06T03:26:10;1.38;;;1.00;;
15952;SDS011;8075;47.766;8.846;2024-01-06T03:28:36;2.30;;;1.00;;
15952;SDS011;8075;47.766;8.846;2024-01-06T03:31:02;2.40;;;1.35;;
15952;SDS011;8075;47.766;8.846;2024-01-06T03:33:28;1.90;;;1.40;;
15952;SDS011;8075;47.766;8.846;2024-01-06T03:35:54;1.80;;;1.50;;
15952;SDS011;8075;47.766;8.846;2024-01-06T03:38:20;1.80;;;1.30;;
15952;SDS011;8075;47.766;8.846;2024-01-06T03:40:46;1.98;;;1.70;;
15952;SDS011;8075;47.766;8.846;2024-01-06T03:43:12;2.50;;;1.50;;
15952;SDS011;8075;47.766;8.846;2024-01-06T03:45:38;1.55;;;1.35;;
15952;SDS011;8075;47.766;8.846;2024-01-06T03:48:04;2.35;;;1.20;;
15952;SDS011;8075;47.766;8.846;2024-01-06T03:50:30;2.03;;;1.20;;
15952;SDS011;8075;47.766;8.846;2024-01-06T03:52:56;2.30;;;1.33;;
15952;SDS011;8075;47.766;8.846;2024-01-06T03:55:22;1.52;;;1.20;;
15952;SDS011;8075;47.766;8.846;2024-01-06T03:57:48;2.97;;;1.50;;
15952;SDS011;8075;47.766;8.846;2024-01-06T04:00:14;3.45;;;1.67;;
15952;SDS011;8075;47.766;8.846;2024-01-06T04:02:40;1.88;;;1.25;;
15952;SDS011;8075;47.766;8.846;2024-01-06T04:05:06;2.05;;;1.50;;
15952;SDS011;8075;47.766;8.846;2024-01-06T04:07:32;2.00;;;1.40;;
15952;SDS011;8075;47.766;8.846;2024-01-06T04:09:58;3.33;;;1.52;;
15952;SDS011;8075;47.766;8.846;2024-01-06T04:12:24;2.53;;;1.50;;
15952;SDS011;8075;47.766;8.846;2024-01-06T04:14:50;3.20;;;1.50;;
15952;SDS011;8075;47.766;8.846;2024-01-06T04:17:16;2.72;;;1.70;;
15952;SDS011;8075;47.766;8.846;2024-01-06T04:19:42;2.83;;;1.63;;
15952;SDS011;8075;47.766;8.846;2024-01-06T04:22:08;2.42;;;1.70;;
15952;SDS011;8075;47.766;8.846;2024-01-06T04:24:34;2.20;;;1.70;;
15952;SDS011;8075;47.766;8.846;2024-01-06T04:27:03;2.70;;;1.77;;
15952;SDS011;8075;47.766;8.846;2024-01-06T04:29:29;2.25;;;2.00;;
15952;SDS011;8075;47.766;8.846;2024-01-06T04:31:55;2.40;;;2.10;;
15952;SDS011;8075;47.766;8.846;2024-01-06T04:34:21;1.97;;;1.57;;
15952;SDS011;8075;47.766;8.846;2024-01-06T04:36:47;2.78;;;2.47;;
15952;SDS011;8075;47.766;8.846;2024-01-06T04:39:14;2.30;;;2.10;;
15952;SDS011;8075;47.766;8.846;2024-01-06T04:41:40;3.92;;;2.88;;
15952;SDS011;8075;47.766;8.846;2024-01-06T04:44:07;2.67;;;1.97;;
15952;SDS011;8075;47.766;8.846;2024-01-06T04:46:32;2.15;;;1.90;;
15952;SDS011;8075;47.766;8.846;2024-01-06T04:48:58;2.50;;;1.85;;
15952;SDS011;8075;47.766;8.846;2024-01-06T04:51:24;2.08;;;1.88;;
15952;SDS011;8075;47.766;8.846;2024-01-06T04:53:50;1.60;;;1.50;;
15952;SDS011;8075;47.766;8.846;2024-01-06T04:56:16;2.38;;;2.00;;
15952;SDS011;8075;47.766;8.846;2024-01-06T04:58:42;2.97;;;1.83;;
15952;SDS011;8075;47.766;8.846;2024-01-06T05:01:08;3.35;;;1.60;;
15952;SDS011;8075;47.766;8.846;2024-01-06T05:03:34;2.28;;;2.00;;
15952;SDS011;8075;47.766;8.846;2024-01-06T05:06:01;2.78;;;1.90;;
15952;SDS011;8075;47.766;8.846;2024-01-06T05:08:26;2.72;;;1.52;;
15952;SDS011;8075;47.766;8.846;2024-01-06T05:10:55;2.67;;;2.28;;
15952;SDS011;8075;47.766;8.846;2024-01-06T05:13:21;1.85;;;1.73;;
15952;SDS011;8075;47.766;8.846;2024-01-06T05:15:47;2.20;;;2.00;;
15952;SDS011;8075;47.766;8.846;2024-01-06T05:18:13;2.08;;;1.65;;
15952;SDS011;8075;47.766;8.846;2024-01-06T05:20:39;1.80;;;1.70;;
15952;SDS011;8075;47.766;8.846;2024-01-06T05:23:06;3.30;;;2.00;;
15952;SDS011;8075;47.766;8.846;2024-01-06T05:25:32;2.33;;;1.75;;
15952;SDS011;8075;47.766;8.846;2024-01-06T05:27:58;1.83;;;1.50;;
15952;SDS011;8075;47.766;8.846;2024-01-06T05:30:24;2.22;;;1.85;;
15952;SDS011;8075;47.766;8.846;2024-01-06T05:32:50;2.35;;;1.65;;
15952;SDS011;8075;47.766;8.846;2024-01-06T05:35:16;2.27;;;1.70;;
15952;SDS011;8075;47.766;8.846;2024-01-06T05:37:42;2.00;;;1.67;;
15952;SDS011;8075;47.766;8.846;2024-01-06T05:40:08;1.93;;;1.57;;
15952;SDS011;8075;47.766;8.846;2024-01-06T05:42:34;1.98;;;1.70;;
15952;SDS011;8075;47.766;8.846;2024-01-06T05:45:00;2.20;;;1.77;;
15952;SDS011;8075;47.766;8.846;2024-01-06T05:47:26;2.10;;;1.70;;
15952;SDS011;8075;47.766;8.846;2024-01-06T05:49:52;2.20;;;1.60;;
15952;SDS011;8075;47.766;8.846;2024-01-06T05:52:18;1.77;;;1.50;;
15952;SDS011;8075;47.766;8.846;2024-01-06T05:54:44;2.15;;;1.70;;
15952;SDS011;8075;47.766;8.846;2024-01-06T05:57:10;2.33;;;1.70;;
15952;SDS011;8075;47.766;8.846;2024-01-06T05:59:36;1.98;;;1.80;;
15952;SDS011;8075;47.766;8.846;2024-01-06T06:02:03;1.98;;;1.50;;
15952;SDS011;8075;47.766;8.846;2024-01-06T06:04:29;1.98;;;1.50;;
15952;SDS011;8075;47.766;8.846;2024-01-06T06:06:55;2.35;;;1.60;;
15952;SDS011;8075;47.766;8.846;2024-01-06T06:09:21;2.20;;;2.00;;
15952;SDS011;8075;47.766;8.846;2024-01-06T06:11:47;2.47;;;2.20;;
15952;SDS011;8075;47.766;8.846;2024-01-06T06:14:13;3.00;;;2.22;;
15952;SDS011;8075;47.766;8.846;2024-01-06T06:16:39;3.10;;;2.17;;
15952;SDS011;8075;47.766;8.846;2024-01-06T06:19:05;2.17;;;1.95;;
15952;SDS011;8075;47.766;8.846;2024-01-06T06:21:32;2.42;;;1.90;;
15952;SDS011;8075;47.766;8.846;2024-01-06T06:23:59;3.15;;;2.10;;
15952;SDS011;8075;47.766;8.846;2024-01-06T06:26:25;2.92;;;2.25;;
15952;SDS011;8075;47.766;8.846;2024-01-06T06:28:51;2.25;;;2.03;;
15952;SDS011;8075;47.766;8.846;2024-01-06T06:31:19;2.95;;;2.60;;
15952;SDS011;8075;47.766;8.846;2024-01-06T06:33:45;2.63;;;2.42;;
15952;SDS011;8075;47.766;8.846;2024-01-06T06:36:11;3.33;;;3.03;;
15952;SDS011;8075;47.766;8.846;2024-01-06T06:38:37;2.60;;;2.40;;
15952;SDS011;8075;47.766;8.846;2024-01-06T06:41:03;2.75;;;2.55;;
15952;SDS011;8075;47.766;8.846;2024-01-06T06:43:29;3.95;;;2.65;;
15952;SDS011;8075;47.766;8.846;2024-01-06T06:45:55;3.08;;;2.63;;
15952;SDS011;8075;47.766;8.846;2024-01-06T06:48:21;3.10;;;2.80;;
15952;SDS011;8075;47.766;8.846;2024-01-06T06:50:47;3.25;;;2.60;;
15952;SDS011;8075;47.766;8.846;2024-01-06T06:53:13;3.10;;;2.72;;
15952;SDS011;8075;47.766;8.846;2024-01-06T06:55:39;3.40;;;2.90;;
15952;SDS011;8075;47.766;8.846;2024-01-06T06:58:06;3.20;;;2.60;;
15952;SDS011;8075;47.766;8.846;2024-01-06T07:00:32;3.20;;;2.90;;
15952;SDS011;8075;47.766;8.846;2024-01-06T07:02:58;3.40;;;3.10;;
15952;SDS011;8075;47.766;8.846;2024-01-06T07:05:25;3.28;;;2.97;;
15952;SDS011;8075;47.766;8.846;2024-01-06T07:07:50;3.27;;;2.97;;
15952;SDS011;8075;47.766;8.846;2024-01-06T07:10:17;5.45;;;3.65;;
15952;SDS011;8075;47.766;8.846;2024-01-06T07:12:43;4.28;;;3.88;;
15952;SDS011;8075;47.766;8.846;2024-01-06T07:15:09;4.28;;;3.88;;
15952;SDS011;8075;47.766;8.846;2024-01-06T07:17:36;4.03;;;3.70;;
15952;SDS011;8075;47.766;8.846;2024-01-06T07:20:03;4.57;;;4.10;;
15952;SDS011;8075;47.766;8.846;2024-01-06T07:22:29;4.70;;;4.30;;
15952;SDS011;8075;47.766;8.846;2024-01-06T07:24:55;4.40;;;4.00;;
15952;SDS011;8075;47.766;8.846;2024-01-06T07:27:21;4.18;;;3.83;;
15952;SDS011;8075;47.766;8.846;2024-01-06T07:29:47;4.50;;;4.10;;
15952;SDS011;8075;47.766;8.846;2024-01-06T07:32:13;5.18;;;4.50;;
15952;SDS011;8075;47.766;8.846;2024-01-06T07:34:40;4.68;;;4.30;;
15952;SDS011;8075;47.766;8.846;2024-01-06T07:37:06;4.53;;;4.10;;
15952;SDS011;8075;47.766;8.846;2024-01-06T07:39:32;4.20;;;3.90;;
15952;SDS011;8075;47.766;8.846;2024-01-06T07:41:58;4.32;;;3.92;;
15952;SDS011;8075;47.766;8.846;2024-01-06T07:44:24;6.85;;;5.75;;
15952;SDS011;8075;47.766;8.846;2024-01-06T07:46:50;4.97;;;4.50;;
15952;SDS011;8075;47.766;8.846;2024-01-06T07:49:17;5.40;;;4.97;;
15952;SDS011;8075;47.766;8.846;2024-01-06T07:51:43;4.72;;;4.32;;
15952;SDS011;8075;47.766;8.846;2024-01-06T07:54:09;4.50;;;4.10;;
15952;SDS011;8075;47.766;8.846;2024-01-06T07:56:36;4.97;;;4.45;;
15952;SDS011;8075;47.766;8.846;2024-01-06T07:59:03;5.10;;;4.68;;
15952;SDS011;8075;47.766;8.846;2024-01-06T08:01:32;4.80;;;4.30;;
15952;SDS011;8075;47.766;8.846;2024-01-06T08:03:58;6.15;;;5.63;;
15952;SDS011;8075;47.766;8.846;2024-01-06T08:06:24;7.28;;;6.57;;
15952;SDS011;8075;47.766;8.846;2024-01-06T08:08:50;7.13;;;6.45;;
15952;SDS011;8075;47.766;8.846;2024-01-06T08:11:16;7.63;;;6.93;;
15952;SDS011;8075;47.766;8.846;2024-01-06T08:13:42;5.60;;;5.10;;
15952;SDS011;8075;47.766;8.846;2024-01-06T08:16:08;5.72;;;5.22;;
15952;SDS011;8075;47.766;8.846;2024-01-06T08:18:34;8.10;;;7.30;;
15952;SDS011;8075;47.766;8.846;2024-01-06T08:21:00;8.40;;;7.60;;
15952;SDS011;8075;47.766;8.846;2024-01-06T08:23:26;9.43;;;8.63;;
15952;SDS011;8075;47.766;8.846;2024-01-06T08:25:52;7.43;;;6.72;;
15952;SDS011;8075;47.766;8.846;2024-01-06T08:28:18;5.57;;;4.82;;
15952;SDS011;8075;47.766;8.846;2024-01-06T08:30:44;5.60;;;5.10;;
15952;SDS011;8075;47.766;8.846;2024-01-06T08:33:10;8.27;;;7.47;;
15952;SDS011;8075;47.766;8.846;2024-01-06T08:35:36;6.57;;;5.88;;
15952;SDS011;8075;47.766;8.846;2024-01-06T08:38:05;5.13;;;4.63;;
15952;SDS011;8075;47.766;8.846;2024-01-06T08:40:32;5.13;;;4.70;;
15952;SDS011;8075;47.766;8.846;2024-01-06T08:42:58;4.32;;;3.53;;
15952;SDS011;8075;47.766;8.846;2024-01-06T08:45:24;2.60;;;2.30;;
15952;SDS011;8075;47.766;8.846;2024-01-06T08:47:49;3.13;;;2.83;;
15952;SDS011;8075;47.766;8.846;2024-01-06T08:50:15;4.00;;;2.78;;
15952;SDS011;8075;47.766;8.846;2024-01-06T08:52:41;3.90;;;2.92;;
15952;SDS011;8075;47.766;8.846;2024-01-06T08:55:07;2.80;;;2.50;;
15952;SDS011;8075;47.766;8.846;2024-01-06T08:57:33;3.38;;;2.80;;
15952;SDS011;8075;47.766;8.846;2024-01-06T09:00:00;3.17;;;2.45;;
15952;SDS011;8075;47.766;8.846;2024-01-06T09:02:25;2.80;;;2.50;;
15952;SDS011;8075;47.766;8.846;2024-01-06T09:04:51;3.80;;;2.60;;
15952;SDS011;8075;47.766;8.846;2024-01-06T09:07:17;3.42;;;3.03;;
15952;SDS011;8075;47.766;8.846;2024-01-06T09:09:43;3.33;;;2.97;;
15952;SDS011;8075;47.766;8.846;2024-01-06T09:12:09;4.00;;;2.30;;
15952;SDS011;8075;47.766;8.846;2024-01-06T09:14:35;2.90;;;2.40;;
15952;SDS011;8075;47.766;8.846;2024-01-06T09:17:01;3.13;;;2.10;;
15952;SDS011;8075;47.766;8.846;2024-01-06T09:19:29;3.40;;;2.65;;
15952;SDS011;8075;47.766;8.846;2024-01-06T09:21:55;4.70;;;2.85;;
15952;SDS011;8075;47.766;8.846;2024-01-06T09:24:21;3.03;;;2.47;;
15952;SDS011;8075;47.766;8.846;2024-01-06T09:26:48;3.75;;;2.33;;
15952;SDS011;8075;47.766;8.846;2024-01-06T09:29:15;3.55;;;2.22;;
15952;SDS011;8075;47.766;8.846;2024-01-06T09:31:41;3.28;;;2.30;;
15952;SDS011;8075;47.766;8.846;2024-01-06T09:34:11;3.63;;;2.38;;
15952;SDS011;8075;47.766;8.846;2024-01-06T09:36:37;3.83;;;2.70;;
15952;SDS011;8075;47.766;8.846;2024-01-06T09:39:03;2.92;;;2.25;;
15952;SDS011;8075;47.766;8.846;2024-01-06T09:41:30;3.35;;;2.05;;
15952;SDS011;8075;47.766;8.846;2024-01-06T09:43:56;2.63;;;2.40;;
15952;SDS011;8075;47.766;8.846;2024-01-06T09:46:26;3.70;;;2.60;;
15952;SDS011;8075;47.766;8.846;2024-01-06T09:48:54;5.68;;;3.00;;
15952;SDS011;8075;47.766;8.846;2024-01-06T09:51:21;3.45;;;2.58;;
15952;SDS011;8075;47.766;8.846;2024-01-06T09:56:14;4.10;;;3.47;;
15952;SDS011;8075;47.766;8.846;2024-01-06T09:58:41;4.13;;;3.20;;
15952;SDS011;8075;47.766;8.846;2024-01-06T10:01:07;3.22;;;2.63;;
15952;SDS011;8075;47.766;8.846;2024-01-06T10:03:35;3.70;;;2.67;;
15952;SDS011;8075;47.766;8.846;2024-01-06T10:06:01;2.78;;;2.50;;
15952;SDS011;8075;47.766;8.846;2024-01-06T10:08:29;4.53;;;2.60;;
15952;SDS011;8075;47.766;8.846;2024-01-06T10:10:57;2.85;;;2.17;;
15952;SDS011;8075;47.766;8.846;2024-01-06T10:13:23;3.17;;;2.78;;
15952;SDS011;8075;47.766;8.846;2024-01-06T10:15:50;3.70;;;2.90;;
15952;SDS011;8075;47.766;8.846;2024-01-06T10:18:16;2.47;;;2.28;;
15952;SDS011;8075;47.766;8.846;2024-01-06T10:20:44;4.13;;;2.50;;
15952;SDS011;8075;47.766;8.846;2024-01-06T10:23:10;3.38;;;2.42;;
15952;SDS011;8075;47.766;8.846;2024-01-06T10:25:36;4.07;;;2.90;;
15952;SDS011;8075;47.766;8.846;2024-01-06T10:28:02;4.97;;;2.90;;
15952;SDS011;8075;47.766;8.846;2024-01-06T10:30:28;3.80;;;2.60;;
15952;SDS011;8075;47.766;8.846;2024-01-06T10:32:54;3.85;;;2.75;;
15952;SDS011;8075;47.766;8.846;2024-01-06T10:35:20;4.10;;;2.97;;
15952;SDS011;8075;47.766;8.846;2024-01-06T10:37:47;3.35;;;2.72;;
15952;SDS011;8075;47.766;8.846;2024-01-06T10:40:16;3.67;;;2.85;;
15952;SDS011;8075;47.766;8.846;2024-01-06T10:42:42;3.63;;;2.90;;
15952;SDS011;8075;47.766;8.846;2024-01-06T10:45:09;4.75;;;2.45;;
15952;SDS011;8075;47.766;8.846;2024-01-06T10:47:36;5.28;;;2.63;;
15952;SDS011;8075;47.766;8.846;2024-01-06T10:50:02;3.20;;;2.30;;
15952;SDS011;8075;47.766;8.846;2024-01-06T10:52:29;4.28;;;2.47;;
15952;SDS011;8075;47.766;8.846;2024-01-06T10:54:55;3.42;;;2.70;;
15952;SDS011;8075;47.766;8.846;2024-01-06T10:57:21;3.08;;;2.67;;
15952;SDS011;8075;47.766;8.846;2024-01-06T10:59:52;5.03;;;2.30;;
15952;SDS011;8075;47.766;8.846;2024-01-06T11:02:18;2.80;;;2.13;;
15952;SDS011;8075;47.766;8.846;2024-01-06T11:04:48;4.20;;;2.30;;
15952;SDS011;8075;47.766;8.846;2024-01-06T11:07:16;3.10;;;2.38;;
15952;SDS011;8075;47.766;8.846;2024-01-06T11:09:55;3.13;;;2.10;;
15952;SDS011;8075;47.766;8.846;2024-01-06T11:12:22;2.20;;;2.00;;
15952;SDS011;8075;47.766;8.846;2024-01-06T11:14:48;3.03;;;2.10;;
15952;SDS011;8075;47.766;8.846;2024-01-06T11:17:47;2.33;;;2.00;;
15952;SDS011;8075;47.766;8.846;2024-01-06T11:20:07;3.42;;;3.13;;
15952;SDS011;8075;47.766;8.846;2024-01-06T11:22:33;3.45;;;2.60;;
15952;SDS011;8075;47.766;8.846;2024-01-06T11:25:05;3.80;;;3.00;;
15952;SDS011;8075;47.766;8.846;2024-01-06T11:27:32;4.70;;;2.88;;
15952;SDS011;8075;47.766;8.846;2024-01-06T11:29:59;3.53;;;2.55;;
15952;SDS011;8075;47.766;8.846;2024-01-06T11:32:26;3.15;;;2.40;;
15952;SDS011;8075;47.766;8.846;2024-01-06T11:34:53;3.13;;;2.40;;
15952;SDS011;8075;47.766;8.846;2024-01-06T11:40:03;2.85;;;2.65;;
15952;SDS011;8075;47.766;8.846;2024-01-06T11:42:32;2.70;;;2.50;;
15952;SDS011;8075;47.766;8.846;2024-01-06T11:45:03;2.83;;;2.53;;
15952;SDS011;8075;47.766;8.846;2024-01-06T11:47:33;3.55;;;2.63;;
15952;SDS011;8075;47.766;8.846;2024-01-06T11:49:59;3.55;;;2.58;;
15952;SDS011;8075;47.766;8.846;2024-01-06T11:52:28;3.75;;;2.90;;
15952;SDS011;8075;47.766;8.846;2024-01-06T11:54:54;4.60;;;3.30;;
15952;SDS011;8075;47.766;8.846;2024-01-06T11:57:21;4.10;;;3.70;;
15952;SDS011;8075;47.766;8.846;2024-01-06T11:59:47;5.40;;;3.30;;
15952;SDS011;8075;47.766;8.846;2024-01-06T12:02:17;5.18;;;2.67;;
15952;SDS011;8075;47.766;8.846;2024-01-06T12:04:45;5.15;;;4.32;;
15952;SDS011;8075;47.766;8.846;2024-01-06T12:07:13;5.68;;;3.90;;
15952;SDS011;8075;47.766;8.846;2024-01-06T12:09:40;4.47;;;3.53;;
15952;SDS011;8075;47.766;8.846;2024-01-06T12:12:06;4.53;;;3.97;;
15952;SDS011;8075;47.766;8.846;2024-01-06T12:14:32;5.38;;;3.95;;
15952;SDS011;8075;47.766;8.846;2024-01-06T12:16:58;9.52;;;6.40;;
15952;SDS011;8075;47.766;8.846;2024-01-06T12:19:31;5.70;;;4.60;;
15952;SDS011;8075;47.766;8.846;2024-01-06T12:21:57;9.57;;;7.43;;
15952;SDS011;8075;47.766;8.846;2024-01-06T12:24:23;5.80;;;4.45;;
15952;SDS011;8075;47.766;8.846;2024-01-06T12:26:49;3.97;;;3.30;;
15952;SDS011;8075;47.766;8.846;2024-01-06T12:29:17;3.45;;;3.10;;
15952;SDS011;8075;47.766;8.846;2024-01-06T12:31:43;6.37;;;4.90;;
15952;SDS011;8075;47.766;8.846;2024-01-06T12:34:09;3.33;;;2.75;;
15952;SDS011;8075;47.766;8.846;2024-01-06T12:36:39;3.25;;;2.95;;
15952;SDS011;8075;47.766;8.846;2024-01-06T12:39:06;3.03;;;2.83;;
15952;SDS011;8075;47.766;8.846;2024-01-06T12:41:36;3.45;;;2.78;;
15952;SDS011;8075;47.766;8.846;2024-01-06T12:44:03;4.03;;;3.10;;
15952;SDS011;8075;47.766;8.846;2024-01-06T12:46:29;7.18;;;5.63;;
15952;SDS011;8075;47.766;8.846;2024-01-06T12:48:55;6.57;;;5.10;;
15952;SDS011;8075;47.766;8.846;2024-01-06T12:51:21;7.82;;;4.93;;
15952;SDS011;8075;47.766;8.846;2024-01-06T12:53:47;4.70;;;3.58;;
15952;SDS011;8075;47.766;8.846;2024-01-06T12:56:13;4.25;;;3.60;;
15952;SDS011;8075;47.766;8.846;2024-01-06T12:58:40;4.93;;;4.05;;
15952;SDS011;8075;47.766;8.846;2024-01-06T13:01:06;6.55;;;4.75;;
15952;SDS011;8075;47.766;8.846;2024-01-06T13:03:32;5.90;;;4.40;;
15952;SDS011;8075;47.766;8.846;2024-01-06T13:05:58;3.45;;;2.90;;
15952;SDS011;8075;47.766;8.846;2024-01-06T13:08:25;4.00;;;3.30;;
15952;SDS011;8075;47.766;8.846;2024-01-06T13:10:51;5.10;;;3.30;;
15952;SDS011;8075;47.766;8.846;2024-01-06T13:13:17;4.90;;;3.50;;
15952;SDS011;8075;47.766;8.846;2024-01-06T13:15:43;4.82;;;3.70;;
15952;SDS011;8075;47.766;8.846;2024-01-06T13:18:11;3.95;;;3.20;;
15952;SDS011;8075;47.766;8.846;2024-01-06T13:20:37;3.75;;;3.35;;
15952;SDS011;8075;47.766;8.846;2024-01-06T13:23:05;4.20;;;3.80;;
15952;SDS011;8075;47.766;8.846;2024-01-06T13:25:32;6.32;;;3.38;;
15952;SDS011;8075;47.766;8.846;2024-01-06T13:27:58;6.38;;;4.40;;
15952;SDS011;8075;47.766;8.846;2024-01-06T13:30:24;5.30;;;4.40;;
15952;SDS011;8075;47.766;8.846;2024-01-06T13:32:50;5.38;;;4.88;;
15952;SDS011;8075;47.766;8.846;2024-01-06T13:35:19;5.25;;;4.50;;
15952;SDS011;8075;47.766;8.846;2024-01-06T13:37:45;5.18;;;4.43;;
15952;SDS011;8075;47.766;8.846;2024-01-06T13:40:13;5.03;;;4.63;;
15952;SDS011;8075;47.766;8.846;2024-01-06T13:42:39;5.35;;;4.70;;
15952;SDS011;8075;47.766;8.846;2024-01-06T13:45:05;5.18;;;4.68;;
15952;SDS011;8075;47.766;8.846;2024-01-06T13:47:32;6.87;;;5.80;;
15952;SDS011;8075;47.766;8.846;2024-01-06T13:49:58;20.52;;;11.98;;
15952;SDS011;8075;47.766;8.846;2024-01-06T13:52:24;50.13;;;24.42;;
15952;SDS011;8075;47.766;8.846;2024-01-06T13:54:50;32.55;;;17.73;;
15952;SDS011;8075;47.766;8.846;2024-01-06T13:57:17;32.47;;;18.33;;
15952;SDS011;8075;47.766;8.846;2024-01-06T13:59:42;13.02;;;9.32;;
15952;SDS011;8075;47.766;8.846;2024-01-06T14:02:09;17.95;;;12.77;;
15952;SDS011;8075;47.766;8.846;2024-01-06T14:04:35;14.02;;;10.40;;
15952;SDS011;8075;47.766;8.846;2024-01-06T14:07:01;10.15;;;9.05;;
15952;SDS011;8075;47.766;8.846;2024-01-06T14:09:27;11.17;;;8.27;;
15952;SDS011;8075;47.766;8.846;2024-01-06T14:11:53;6.70;;;6.10;;
15952;SDS011;8075;47.766;8.846;2024-01-06T14:14:20;7.25;;;6.55;;
15952;SDS011;8075;47.766;8.846;2024-01-06T14:16:46;6.35;;;4.95;;
15952;SDS011;8075;47.766;8.846;2024-01-06T14:19:12;5.20;;;4.80;;
15952;SDS011;8075;47.766;8.846;2024-01-06T14:21:39;7.90;;;5.30;;
15952;SDS011;8075;47.766;8.846;2024-01-06T14:24:05;6.03;;;5.30;;
15952;SDS011;8075;47.766;8.846;2024-01-06T14:26:32;5.55;;;4.80;;
15952;SDS011;8075;47.766;8.846;2024-01-06T14:28:58;5.55;;;5.05;;
15952;SDS011;8075;47.766;8.846;2024-01-06T14:31:24;5.60;;;5.10;;
15952;SDS011;8075;47.766;8.846;2024-01-06T14:33:52;5.10;;;4.70;;
15952;SDS011;8075;47.766;8.846;2024-01-06T14:36:18;11.13;;;9.93;;
15952;SDS011;8075;47.766;8.846;2024-01-06T14:38:44;5.85;;;4.70;;
15952;SDS011;8075;47.766;8.846;2024-01-06T14:41:10;6.37;;;5.13;;
15952;SDS011;8075;47.766;8.846;2024-01-06T14:43:36;4.85;;;4.35;;
15952;SDS011;8075;47.766;8.846;2024-01-06T14:46:02;6.22;;;5.50;;
15952;SDS011;8075;47.766;8.846;2024-01-06T14:48:28;5.68;;;5.18;;
15952;SDS011;8075;47.766;8.846;2024-01-06T14:50:54;5.50;;;5.10;;
15952;SDS011;8075;47.766;8.846;2024-01-06T14:53:20;5.43;;;4.80;;
15952;SDS011;8075;47.766;8.846;2024-01-06T14:55:46;5.15;;;4.75;;
15952;SDS011;8075;47.766;8.846;2024-01-06T14:58:12;4.40;;;4.00;;